Time;durP1;ratioP1;P1;durP2;ratioP2;P2;SDS_P1;SDS_P2;PMS_P1;PMS_P2;Temp;Humidity;BMP_temperature;BMP_pressure;BME280_temperature;BME280_humidity;BME280_pressure;Samples;Min_cycle;Max_cycle;Signal;HPM_P1;HPM_P2
2022/04/29 00:00:57;;;;;;;8.00;7.37;;;9.80;99.90;;;;;;4882142;29;20485;-79
2022/04/29 00:03:25;;;;;;;9.73;6.88;;;9.80;99.90;;;;;;4883183;29;20494;-79
2022/04/29 00:05:53;;;;;;;8.70;8.00;;;9.70;99.90;;;;;;4883348;29;20811;-79
2022/04/29 00:08:20;;;;;;;7.70;7.00;;;9.80;99.90;;;;;;4882160;29;20466;-80
2022/04/29 00:10:47;;;;;;;9.13;8.43;;;9.70;99.90;;;;;;4881869;29;20988;-79
2022/04/29 00:13:15;;;;;;;8.45;7.75;;;9.70;99.90;;;;;;4881952;29;20464;-79
2022/04/29 00:15:42;;;;;;;10.03;9.03;;;9.60;99.90;;;;;;4882571;29;20212;-79
2022/04/29 00:18:09;;;;;;;8.30;7.60;;;9.60;99.90;;;;;;4881996;29;20976;-80
2022/04/29 00:20:38;;;;;;;7.85;7.25;;;9.60;99.90;;;;;;4863024;29;21017;-79
2022/04/29 00:23:05;;;;;;;8.17;7.50;;;9.60;99.90;;;;;;4863697;29;20276;-79
2022/04/29 00:25:32;;;;;;;8.65;7.95;;;9.60;99.90;;;;;;4880843;29;20461;-79
2022/04/29 00:27:59;;;;;;;9.67;8.77;;;9.50;99.90;;;;;;4881912;29;20221;-79
2022/04/29 00:30:26;;;;;;;9.82;9.02;;;9.50;99.90;;;;;;4880873;29;20807;-79
2022/04/29 00:32:53;;;;;;;8.90;8.10;;;9.50;99.90;;;;;;4881991;29;20597;-79
2022/04/29 00:35:20;;;;;;;8.90;8.07;;;9.50;99.90;;;;;;4882194;29;20453;-80
2022/04/29 00:37:50;;;;;;;9.13;8.32;;;9.40;99.90;;;;;;4881743;29;20483;-79
2022/04/29 00:40:19;;;;;;;8.88;8.00;;;9.40;99.90;;;;;;4881408;29;20216;-78
2022/04/29 00:42:46;;;;;;;9.33;8.63;;;9.30;99.90;;;;;;4881867;29;20237;-79
2022/04/29 00:45:13;;;;;;;10.40;8.00;;;9.30;99.90;;;;;;4881180;29;20457;-79
2022/04/29 00:47:40;;;;;;;10.57;9.70;;;9.30;99.90;;;;;;4882062;29;20457;-79
2022/04/29 00:50:08;;;;;;;10.73;9.82;;;9.20;99.90;;;;;;4880699;29;20471;-79
2022/04/29 00:52:39;;;;;;;10.45;9.57;;;9.20;99.90;;;;;;4881532;29;20235;-79
2022/04/29 00:55:12;;;;;;;10.77;9.90;;;9.20;99.90;;;;;;4881145;29;20584;-79
2022/04/29 00:57:44;;;;;;;9.75;8.85;;;9.10;99.90;;;;;;4881108;29;20967;-79
2022/04/29 01:00:14;;;;;;;9.88;9.00;;;9.20;99.90;;;;;;4880990;29;20593;-79
2022/04/29 01:02:42;;;;;;;11.93;10.75;;;9.10;99.90;;;;;;4881009;29;20239;-79
2022/04/29 01:05:11;;;;;;;9.75;9.05;;;9.00;99.90;;;;;;4881337;29;20218;-79
2022/04/29 01:07:40;;;;;;;9.90;9.18;;;9.00;99.90;;;;;;4881068;29;20212;-79
2022/04/29 01:10:11;;;;;;;12.05;10.95;;;9.00;99.90;;;;;;4883950;29;20581;-79
2022/04/29 01:12:40;;;;;;;9.55;8.75;;;9.00;99.90;;;;;;4884886;29;20284;-79
2022/04/29 01:15:10;;;;;;;10.02;9.20;;;9.00;99.90;;;;;;4884571;29;20212;-79
2022/04/29 01:17:39;;;;;;;10.18;9.35;;;9.00;99.90;;;;;;4884884;29;20204;-79
2022/04/29 01:20:08;;;;;;;10.30;9.40;;;9.00;99.90;;;;;;4884434;29;20261;-79
2022/04/29 01:22:36;;;;;;;10.63;9.60;;;9.00;99.90;;;;;;4883719;29;20233;-79
2022/04/29 01:25:04;;;;;;;10.50;9.50;;;9.00;99.90;;;;;;4884399;29;20590;-79
2022/04/29 01:27:31;;;;;;;12.27;10.50;;;8.90;99.90;;;;;;4883772;29;20205;-79
2022/04/29 01:30:01;;;;;;;8.87;8.17;;;8.90;99.90;;;;;;4884546;29;20582;-79
2022/04/29 01:32:29;;;;;;;10.23;9.23;;;8.90;99.90;;;;;;4883763;29;20489;-79
2022/04/29 01:34:55;;;;;;;10.88;9.75;;;8.70;99.90;;;;;;4884150;29;20239;-79
2022/04/29 01:37:22;;;;;;;10.77;9.73;;;8.60;99.90;;;;;;4883762;29;20220;-80
2022/04/29 01:39:50;;;;;;;10.68;9.68;;;8.70;99.90;;;;;;4882770;29;20246;-79
2022/04/29 01:42:17;;;;;;;10.50;9.40;;;8.70;99.90;;;;;;4884865;29;20259;-81
2022/04/29 01:44:45;;;;;;;11.90;10.82;;;8.70;99.90;;;;;;4886905;29;20233;-79
2022/04/29 01:47:12;;;;;;;11.60;10.52;;;8.70;99.90;;;;;;4888956;29;20221;-81
2022/04/29 01:49:39;;;;;;;10.35;9.45;;;8.60;99.90;;;;;;4886348;29;20204;-79
2022/04/29 01:52:06;;;;;;;11.85;10.82;;;8.60;99.90;;;;;;4886049;29;20234;-81
2022/04/29 01:54:33;;;;;;;11.07;10.20;;;8.60;99.90;;;;;;4886423;29;20207;-81
2022/04/29 01:57:01;;;;;;;11.77;10.13;;;8.60;99.90;;;;;;4886170;29;20208;-81
2022/04/29 01:59:29;;;;;;;12.32;11.32;;;8.50;99.90;;;;;;4886590;29;20251;-81
2022/04/29 02:01:56;;;;;;;11.02;10.05;;;8.50;99.90;;;;;;4885977;29;20599;-81
2022/04/29 02:04:23;;;;;;;11.32;10.07;;;8.50;99.90;;;;;;4886196;29;20254;-81
2022/04/29 02:06:49;;;;;;;9.73;8.90;;;8.50;99.90;;;;;;4885546;29;20682;-81
2022/04/29 02:09:16;;;;;;;14.43;12.93;;;8.40;99.90;;;;;;4886285;29;20216;-81
2022/04/29 02:12:03;;;;;;;10.88;9.93;;;8.40;99.90;;;;;;4885725;29;20240;-81
2022/04/29 02:14:32;;;;;;;11.40;10.27;;;8.40;99.90;;;;;;4886205;29;20243;-81
2022/04/29 02:17:00;;;;;;;12.77;10.70;;;8.40;99.90;;;;;;4885709;29;20212;-81
2022/04/29 02:19:28;;;;;;;11.40;10.30;;;8.40;99.90;;;;;;4885238;29;20603;-79
2022/04/29 02:21:55;;;;;;;12.38;11.27;;;8.30;99.90;;;;;;4885006;29;20280;-81
2022/04/29 02:24:22;;;;;;;10.50;9.60;;;8.30;99.90;;;;;;4886102;29;20227;-81
2022/04/29 02:26:49;;;;;;;11.50;10.60;;;8.30;99.90;;;;;;4886208;29;20208;-81
2022/04/29 02:29:15;;;;;;;11.95;11.02;;;8.30;99.90;;;;;;4886049;29;20216;-81
2022/04/29 02:31:43;;;;;;;10.93;9.82;;;8.30;99.90;;;;;;4885029;29;20232;-81
2022/04/29 02:34:10;;;;;;;12.77;11.55;;;8.30;99.90;;;;;;4886187;29;20213;-81
2022/04/29 02:36:37;;;;;;;10.98;9.98;;;8.20;99.90;;;;;;4885226;29;20215;-81
2022/04/29 02:39:04;;;;;;;10.55;9.73;;;8.20;99.90;;;;;;4885761;29;20219;-81
2022/04/29 02:41:31;;;;;;;11.70;10.68;;;8.20;99.90;;;;;;4885215;29;20232;-81
2022/04/29 02:43:58;;;;;;;11.60;10.50;;;8.20;99.90;;;;;;4884419;29;20227;-80
2022/04/29 02:46:25;;;;;;;13.82;12.45;;;8.10;99.90;;;;;;4885461;29;20699;-81
2022/04/29 02:48:53;;;;;;;11.85;10.95;;;8.10;99.90;;;;;;4885355;29;20208;-81
2022/04/29 02:51:19;;;;;;;13.23;11.95;;;8.10;99.90;;;;;;4891273;29;20216;-76
2022/04/29 02:53:46;;;;;;;11.23;10.23;;;8.10;99.90;;;;;;4902613;29;20251;-77
2022/04/29 02:56:13;;;;;;;11.80;10.57;;;8.10;99.90;;;;;;4893828;29;20204;-81
2022/04/29 02:58:39;;;;;;;12.65;11.52;;;8.10;99.90;;;;;;4885933;29;20203;-81
2022/04/29 03:01:06;;;;;;;12.70;11.38;;;8.10;99.90;;;;;;4885738;29;20233;-81
2022/04/29 03:03:33;;;;;;;11.13;10.32;;;7.90;99.90;;;;;;4885290;29;20239;-80
2022/04/29 03:06:01;;;;;;;11.50;10.50;;;7.90;99.90;;;;;;4885950;29;20223;-81
2022/04/29 03:08:28;;;;;;;11.35;10.45;;;7.90;99.90;;;;;;4885397;29;20574;-80
2022/04/29 03:10:55;;;;;;;12.27;11.13;;;7.90;99.90;;;;;;4884813;29;20235;-78
2022/04/29 03:13:22;;;;;;;13.02;11.70;;;7.90;99.90;;;;;;4884726;29;20202;-81
2022/04/29 03:15:49;;;;;;;11.98;10.77;;;7.90;99.90;;;;;;4886048;29;20216;-79
2022/04/29 03:18:19;;;;;;;12.07;11.05;;;7.90;99.90;;;;;;4885224;29;20670;-80
2022/04/29 03:20:46;;;;;;;12.05;11.05;;;7.80;99.90;;;;;;4884191;29;20231;-81
2022/04/29 03:23:15;;;;;;;11.98;10.85;;;7.90;99.90;;;;;;4884653;29;20219;-79
2022/04/29 03:25:42;;;;;;;12.40;11.40;;;7.80;99.90;;;;;;4885226;29;20211;-80
2022/04/29 03:28:09;;;;;;;12.95;11.75;;;7.80;99.90;;;;;;4887634;29;20204;-78
2022/04/29 03:30:37;;;;;;;13.82;12.52;;;7.80;99.90;;;;;;4884934;29;20223;-80
2022/04/29 03:33:07;;;;;;;14.10;12.68;;;7.80;99.90;;;;;;4884280;29;20220;-80
2022/04/29 03:35:39;;;;;;;12.77;11.07;;;7.80;99.90;;;;;;4884027;29;20212;-80
2022/04/29 03:38:06;;;;;;;12.23;10.82;;;7.90;99.90;;;;;;4884492;29;20207;-80
2022/04/29 03:40:35;;;;;;;11.80;10.70;;;7.90;99.90;;;;;;4883953;29;20219;-80
2022/04/29 03:43:02;;;;;;;12.23;10.95;;;7.80;99.90;;;;;;4884784;29;20208;-82
2022/04/29 03:45:30;;;;;;;12.13;11.02;;;7.80;99.90;;;;;;4884323;29;20243;-83
2022/04/29 03:47:57;;;;;;;10.90;10.00;;;7.80;99.90;;;;;;4883652;29;20694;-80
2022/04/29 03:50:25;;;;;;;13.18;12.00;;;7.80;99.90;;;;;;4884792;29;20420;-80
2022/04/29 03:52:53;;;;;;;12.60;11.40;;;7.80;99.90;;;;;;4884055;29;20223;-80
2022/04/29 03:55:20;;;;;;;12.05;11.05;;;7.70;99.90;;;;;;4884235;29;20212;-80
2022/04/29 03:57:49;;;;;;;12.88;11.57;;;7.70;99.90;;;;;;4885076;29;20211;-80
2022/04/29 04:00:16;;;;;;;12.05;11.05;;;7.60;99.90;;;;;;4884383;29;20219;-80
2022/04/29 04:02:43;;;;;;;15.40;12.30;;;7.60;99.90;;;;;;4884630;29;20236;-83
2022/04/29 04:05:11;;;;;;;12.55;11.45;;;7.60;99.90;;;;;;4884361;29;20231;-79
2022/04/29 04:07:38;;;;;;;13.25;12.13;;;7.70;99.90;;;;;;4884717;29;20598;-80
2022/04/29 04:10:05;;;;;;;13.25;12.15;;;7.70;99.90;;;;;;4884385;29;20211;-79
2022/04/29 04:12:40;;;;;;;11.98;10.95;;;7.70;99.90;;;;;;4884195;29;20237;-80
2022/04/29 04:15:10;;;;;;;13.48;12.13;;;7.70;99.90;;;;;;4884320;29;20223;-83
2022/04/29 04:17:37;;;;;;;13.60;12.45;;;7.60;99.90;;;;;;4884707;29;20235;-83
2022/04/29 04:20:06;;;;;;;13.85;12.40;;;7.50;99.90;;;;;;4884389;29;20212;-82
2022/04/29 04:22:35;;;;;;;13.40;12.25;;;7.30;99.90;;;;;;4883934;29;20224;-81
2022/04/29 04:25:02;;;;;;;12.20;11.13;;;7.40;99.90;;;;;;4884486;29;20231;-80
2022/04/29 04:27:29;;;;;;;13.07;11.80;;;7.40;99.90;;;;;;4884002;29;20574;-80
2022/04/29 04:29:56;;;;;;;13.93;12.77;;;7.50;99.90;;;;;;4884680;29;20567;-80
2022/04/29 04:32:24;;;;;;;13.57;12.38;;;7.50;99.90;;;;;;4883731;29;20296;-79
2022/04/29 04:34:51;;;;;;;13.98;12.48;;;7.40;99.90;;;;;;4884303;29;20200;-81
2022/04/29 04:37:18;;;;;;;12.70;11.50;;;7.50;99.90;;;;;;4883815;29;20299;-82
2022/04/29 04:39:45;;;;;;;14.98;13.52;;;7.60;99.90;;;;;;4884204;29;20259;-83
2022/04/29 04:42:11;;;;;;;14.63;12.88;;;7.60;99.90;;;;;;4883558;29;20694;-83
2022/04/29 04:44:38;;;;;;;13.88;12.43;;;7.70;99.90;;;;;;4887740;29;20247;-83
2022/04/29 04:47:06;;;;;;;13.20;11.90;;;7.80;99.90;;;;;;4887840;29;20200;-80
2022/04/29 04:49:34;;;;;;;13.73;12.40;;;7.80;99.90;;;;;;4889106;29;20273;-76
2022/04/29 04:52:01;;;;;;;14.45;13.10;;;7.90;99.90;;;;;;4897944;29;20227;-77
2022/04/29 04:54:28;;;;;;;13.13;12.00;;;7.90;99.90;;;;;;4899049;29;20224;-78
2022/04/29 04:56:55;;;;;;;12.23;11.18;;;8.00;99.90;;;;;;4899074;29;20215;-77
2022/04/29 04:59:22;;;;;;;13.18;11.82;;;8.10;99.90;;;;;;4891715;29;20223;-83
2022/04/29 05:01:48;;;;;;;13.20;12.05;;;8.20;99.90;;;;;;4887212;29;20236;-81
2022/04/29 05:04:15;;;;;;;14.38;13.10;;;8.30;99.90;;;;;;4887617;29;20229;-83
2022/04/29 05:06:43;;;;;;;14.30;13.05;;;8.40;99.90;;;;;;4888753;29;20216;-78
2022/04/29 05:09:10;;;;;;;12.52;11.40;;;8.50;99.90;;;;;;4889534;29;20225;-81
2022/04/29 05:11:37;;;;;;;14.27;13.07;;;8.60;99.90;;;;;;4888296;29;20233;-81
2022/04/29 05:14:04;;;;;;;12.80;11.65;;;8.70;99.90;;;;;;4887287;29;20196;-79
2022/04/29 05:16:30;;;;;;;13.40;11.85;;;8.80;99.90;;;;;;4887787;29;20231;-81
2022/04/29 05:18:57;;;;;;;13.18;12.07;;;8.90;99.90;;;;;;4885884;29;20210;-81
2022/04/29 05:21:24;;;;;;;13.73;11.52;;;9.00;99.90;;;;;;4882018;29;20234;-80
2022/04/29 05:23:52;;;;;;;11.88;10.85;;;9.20;99.90;;;;;;4885762;29;20212;-81
2022/04/29 05:26:19;;;;;;;12.00;10.90;;;9.30;99.90;;;;;;4885959;29;20200;-81
2022/04/29 05:28:45;;;;;;;12.32;11.32;;;9.40;99.90;;;;;;4885760;29;20461;-81
2022/04/29 05:31:13;;;;;;;12.40;11.27;;;9.50;99.90;;;;;;4885380;29;20235;-79
2022/04/29 05:33:40;;;;;;;11.90;10.80;;;9.60;99.90;;;;;;4885823;29;20458;-81
2022/04/29 05:36:08;;;;;;;13.00;10.95;;;9.70;99.90;;;;;;4885884;29;20204;-80
2022/04/29 05:44:08;;;;;;;12.60;11.50;;;10.00;99.90;;;;;;4886144;29;20489;-81
2022/04/29 05:46:35;;;;;;;11.77;10.77;;;10.20;99.90;;;;;;4877243;29;20464;-81
2022/04/29 05:49:02;;;;;;;12.23;11.17;;;10.20;99.90;;;;;;4885976;29;20459;-79
2022/04/29 05:51:29;;;;;;;11.50;10.50;;;10.30;99.90;;;;;;4884318;29;20475;-81
2022/04/29 05:53:55;;;;;;;11.90;11.00;;;10.30;99.90;;;;;;4888905;29;20485;-82
2022/04/29 05:56:24;;;;;;;11.50;10.60;;;10.30;99.90;;;;;;4887220;29;20461;-81
2022/04/29 05:58:51;;;;;;;10.93;10.02;;;10.40;99.90;;;;;;4886644;29;20462;-79
2022/04/29 06:01:18;;;;;;;11.47;10.53;;;10.50;99.90;;;;;;4885759;29;20234;-81
2022/04/29 06:03:44;;;;;;;11.70;10.70;;;10.50;99.90;;;;;;4885930;29;20460;-81
2022/04/29 06:06:11;;;;;;;10.70;9.70;;;10.50;99.90;;;;;;4885885;29;21020;-81
2022/04/29 06:08:38;;;;;;;10.80;9.80;;;10.50;99.90;;;;;;4885531;29;20459;-81
2022/04/29 06:11:05;;;;;;;13.43;11.40;;;10.60;99.90;;;;;;4885730;29;21024;-81
2022/04/29 06:13:33;;;;;;;10.67;9.77;;;10.60;99.90;;;;;;4885557;29;20463;-80
2022/04/29 06:16:00;;;;;;;11.93;10.73;;;10.70;99.90;;;;;;4885256;29;20458;-80
2022/04/29 06:18:26;;;;;;;12.83;11.73;;;10.80;99.90;;;;;;4885596;29;20523;-81
2022/04/29 06:20:54;;;;;;;12.10;10.87;;;10.90;99.90;;;;;;4886637;29;20494;-81
2022/04/29 06:23:20;;;;;;;12.37;11.17;;;11.10;99.90;;;;;;4903728;29;20485;-78
2022/04/29 06:25:47;;;;;;;10.43;9.53;;;11.10;99.90;;;;;;4890533;29;20488;-81
2022/04/29 06:28:14;;;;;;;10.80;9.80;;;11.30;99.90;;;;;;4886012;29;20459;-81
2022/04/29 06:30:42;;;;;;;11.80;10.77;;;11.40;99.90;;;;;;4885390;29;20460;-81
2022/04/29 06:33:09;;;;;;;10.63;9.73;;;11.50;99.50;;;;;;4886489;29;20457;-81
2022/04/29 06:35:41;;;;;;;11.23;10.13;;;11.70;99.60;;;;;;4886420;29;20461;-79
2022/04/29 06:38:08;;;;;;;11.63;10.53;;;11.90;99.50;;;;;;4886812;29;20516;-81
2022/04/29 06:40:35;;;;;;;10.50;9.70;;;12.00;98.70;;;;;;4885457;29;20969;-81
2022/04/29 06:43:01;;;;;;;11.70;10.63;;;12.10;98.80;;;;;;4886070;29;20460;-82
2022/04/29 06:45:28;;;;;;;10.67;9.80;;;12.20;98.80;;;;;;4885564;29;20484;-81
2022/04/29 06:47:56;;;;;;;10.37;9.30;;;12.50;98.60;;;;;;4885722;29;20468;-82
2022/04/29 06:50:23;;;;;;;10.00;9.00;;;12.60;97.30;;;;;;4885977;29;20460;-81
2022/04/29 06:52:49;;;;;;;11.27;10.20;;;12.80;97.60;;;;;;4885213;29;20457;-82
2022/04/29 06:55:16;;;;;;;10.63;9.47;;;12.90;96.50;;;;;;4884928;29;20460;-80
2022/04/29 06:57:43;;;;;;;12.30;11.20;;;13.10;96.50;;;;;;4885772;29;20470;-82
2022/04/29 07:00:11;;;;;;;11.83;10.67;;;13.30;95.90;;;;;;4885172;29;20475;-82
2022/04/29 07:02:38;;;;;;;10.03;9.03;;;13.50;95.30;;;;;;4884359;29;20483;-82
2022/04/29 07:05:07;;;;;;;11.50;10.60;;;13.60;95.20;;;;;;4884254;29;20484;-80
2022/04/29 07:07:33;;;;;;;10.30;8.50;;;13.70;95.10;;;;;;4873162;29;20464;-82
2022/04/29 07:10:00;;;;;;;10.73;9.73;;;13.80;93.30;;;;;;4875751;29;20464;-82
2022/04/29 07:12:27;;;;;;;11.13;10.27;;;13.90;93.00;;;;;;4875525;29;20473;-81
2022/04/29 07:14:54;;;;;;;10.03;9.13;;;14.00;93.20;;;;;;4876126;29;20453;-82
2022/04/29 07:17:21;;;;;;;11.67;10.40;;;14.00;93.20;;;;;;4876816;29;20464;-82
2022/04/29 07:19:49;;;;;;;10.47;9.53;;;14.20;93.10;;;;;;4873241;29;20477;-82
2022/04/29 07:22:17;;;;;;;10.20;9.30;;;14.30;92.50;;;;;;4874894;29;20484;-82
2022/04/29 07:24:44;;;;;;;10.93;9.93;;;14.30;92.10;;;;;;4873149;29;20550;-82
2022/04/29 07:27:13;;;;;;;11.13;9.10;;;14.30;91.80;;;;;;4876280;29;20635;-82
2022/04/29 07:29:39;;;;;;;10.40;9.30;;;14.30;91.70;;;;;;4877420;29;20467;-80
2022/04/29 07:32:07;;;;;;;9.77;8.93;;;14.30;91.80;;;;;;4874947;29;20481;-81
2022/04/29 07:42:48;;;;;;;10.90;9.93;;;14.70;91.30;;;;;;4885274;29;20461;-83
2022/04/29 07:45:15;;;;;;;10.30;9.40;;;14.90;91.40;;;;;;4884235;29;20489;-84
2022/04/29 07:47:41;;;;;;;11.80;10.70;;;15.20;90.70;;;;;;4883954;29;20449;-84
2022/04/29 07:50:10;;;;;;;9.43;8.53;;;15.30;90.90;;;;;;4884235;29;20461;-82
2022/04/29 07:52:38;;;;;;;9.67;8.73;;;15.50;90.40;;;;;;4877980;29;20939;-84
2022/04/29 07:55:06;;;;;;;11.27;9.77;;;15.70;90.00;;;;;;4882255;29;20455;-82
2022/04/29 07:57:32;;;;;;;10.33;9.43;;;15.80;88.30;;;;;;4883876;29;21018;-84
2022/04/29 07:59:59;;;;;;;10.10;9.20;;;16.00;87.80;;;;;;4883026;29;20472;-83
2022/04/29 08:02:26;;;;;;;8.30;7.70;;;16.20;87.30;;;;;;4881465;29;20487;-83
2022/04/29 08:04:52;;;;;;;9.80;8.90;;;16.30;87.20;;;;;;4880970;29;20484;-82
2022/04/29 08:07:19;;;;;;;9.93;9.00;;;16.40;86.20;;;;;;4882386;29;20473;-83
2022/04/29 08:09:47;;;;;;;9.47;8.73;;;16.60;85.40;;;;;;4881012;29;20610;-83
2022/04/29 08:12:14;;;;;;;8.67;7.87;;;16.70;84.90;;;;;;4899996;29;20478;-82
2022/04/29 08:14:41;;;;;;;8.00;7.30;;;16.70;83.80;;;;;;4883334;29;20463;-82
2022/04/29 08:17:08;;;;;;;9.03;8.20;;;16.80;81.90;;;;;;4882553;29;20466;-81
2022/04/29 08:19:36;;;;;;;11.50;9.03;;;16.90;82.40;;;;;;4885767;29;20462;-82
2022/04/29 08:22:03;;;;;;;9.10;8.30;;;16.80;82.40;;;;;;4886123;29;20479;-81
2022/04/29 08:24:30;;;;;;;10.50;9.57;;;16.80;81.90;;;;;;4887314;29;20457;-82
2022/04/29 08:26:58;;;;;;;9.00;8.30;;;16.70;83.10;;;;;;4886351;29;20502;-81
2022/04/29 08:29:24;;;;;;;11.20;8.57;;;16.70;81.90;;;;;;4886649;29;20467;-81
2022/04/29 08:31:51;;;;;;;8.30;7.60;;;16.70;81.00;;;;;;4887341;29;20477;-82
2022/04/29 08:34:18;;;;;;;8.60;7.90;;;16.70;80.80;;;;;;4888253;29;20461;-83
2022/04/29 08:36:45;;;;;;;7.77;7.10;;;16.50;79.40;;;;;;4886147;29;20900;-80
2022/04/29 08:39:11;;;;;;;7.73;7.03;;;16.40;81.40;;;;;;4886178;29;20458;-82
2022/04/29 08:41:40;;;;;;;8.27;7.57;;;16.40;80.10;;;;;;4886457;29;20485;-82
2022/04/29 08:44:10;;;;;;;8.23;7.53;;;16.40;76.70;;;;;;4886425;29;20465;-82
2022/04/29 08:46:39;;;;;;;7.53;6.67;;;16.50;78.30;;;;;;4886246;29;20491;-81
2022/04/29 08:49:07;;;;;;;7.83;7.13;;;16.70;79.30;;;;;;4886573;29;20465;-81
2022/04/29 08:51:34;;;;;;;7.17;6.50;;;16.80;79.60;;;;;;4885575;29;20489;-81
2022/04/29 08:54:01;;;;;;;8.20;7.40;;;16.90;77.20;;;;;;4886942;29;20524;-82
2022/04/29 08:59:14;;;;;;;8.37;7.57;;;17.20;75.80;;;;;;4886884;29;20454;-83
2022/04/29 09:01:43;;;;;;;7.80;6.97;;;17.30;73.70;;;;;;4886282;29;20490;-83
2022/04/29 09:04:09;;;;;;;7.47;6.87;;;17.40;75.90;;;;;;4887086;29;20459;-80
2022/04/29 09:06:47;;;;;;;8.27;7.57;;;17.50;75.80;;;;;;4886597;29;20522;-82
2022/04/29 09:09:14;;;;;;;6.00;5.30;;;17.70;75.70;;;;;;4885904;29;20926;-80
2022/04/29 09:11:41;;;;;;;6.13;5.63;;;17.80;69.30;;;;;;4885909;29;20479;-82
2022/04/29 09:14:21;;;;;;;6.93;6.33;;;18.00;69.40;;;;;;4886262;29;20875;-82
2022/04/29 09:16:48;;;;;;;5.07;4.63;;;18.30;70.80;;;;;;4885195;29;20455;-80
2022/04/29 09:19:30;;;;;;;6.67;6.07;;;18.40;68.30;;;;;;4885207;29;20456;-82
2022/04/29 09:22:05;;;;;;;7.47;6.80;;;18.50;68.60;;;;;;4885192;29;20490;-82
2022/04/29 09:24:32;;;;;;;6.57;6.00;;;18.70;67.60;;;;;;4886424;29;20480;-80
2022/04/29 09:27:00;;;;;;;5.77;5.33;;;18.90;67.60;;;;;;4886206;29;20509;-83
2022/04/29 09:29:29;;;;;;;5.93;5.53;;;19.10;66.40;;;;;;4885437;29;20517;-82
2022/04/29 09:31:58;;;;;;;6.40;5.70;;;19.40;64.50;;;;;;4885898;29;20477;-82
2022/04/29 09:34:43;;;;;;;6.37;5.87;;;19.50;64.20;;;;;;4885381;29;20488;-81
2022/04/29 09:37:14;;;;;;;6.33;5.37;;;19.60;62.20;;;;;;4886084;29;20452;-81
2022/04/29 09:39:50;;;;;;;6.63;5.30;;;19.90;63.20;;;;;;4886304;29;20464;-82
2022/04/29 09:42:17;;;;;;;6.30;5.63;;;20.10;63.40;;;;;;4886231;29;20472;-82
2022/04/29 09:44:45;;;;;;;6.27;5.80;;;20.40;62.90;;;;;;4886674;29;20461;-82
2022/04/29 09:47:14;;;;;;;7.10;5.90;;;20.60;61.40;;;;;;4885750;29;20558;-82
2022/04/29 09:49:42;;;;;;;5.97;5.20;;;20.90;62.40;;;;;;4885564;29;20921;-82
2022/04/29 09:52:09;;;;;;;6.07;5.57;;;21.10;59.80;;;;;;4887159;29;20464;-80
2022/04/29 09:54:37;;;;;;;6.13;5.67;;;21.20;59.70;;;;;;4901643;29;20450;-78
2022/04/29 09:57:09;;;;;;;6.50;6.00;;;21.30;59.30;;;;;;4895530;29;20458;-82
2022/04/29 09:59:39;;;;;;;6.30;5.80;;;21.20;57.70;;;;;;4886270;29;20473;-82
2022/04/29 10:02:09;;;;;;;6.43;5.83;;;21.10;57.20;;;;;;4884954;29;20487;-83
2022/04/29 10:04:40;;;;;;;7.53;5.27;;;21.20;59.70;;;;;;4884346;29;20470;-85
2022/04/29 10:07:08;;;;;;;5.60;5.10;;;21.50;59.80;;;;;;4884437;29;20562;-85
2022/04/29 10:09:36;;;;;;;5.77;5.37;;;21.70;57.30;;;;;;4884098;29;20462;-79
2022/04/29 10:12:05;;;;;;;5.37;5.00;;;21.90;56.70;;;;;;4883731;29;20482;-81
2022/04/29 10:14:34;;;;;;;5.63;5.23;;;22.10;55.60;;;;;;4883709;29;20465;-83
2022/04/29 10:22:49;;;;;;;5.80;5.30;;;22.50;52.80;;;;;;4884740;29;20513;-83
2022/04/29 10:25:18;;;;;;;4.67;4.37;;;22.50;53.10;;;;;;4884564;29;20539;-84
2022/04/29 10:27:48;;;;;;;5.23;4.90;;;22.50;53.30;;;;;;4884339;29;20462;-85
2022/04/29 10:30:17;;;;;;;5.00;4.60;;;22.60;51.00;;;;;;4873041;29;20461;-83
2022/04/29 10:33:00;;;;;;;5.27;4.77;;;22.40;52.60;;;;;;4883669;29;20490;-84
2022/04/29 10:35:49;;;;;;;4.87;4.47;;;22.40;51.60;;;;;;4883464;29;20522;-83
2022/04/29 10:38:16;;;;;;;5.83;4.13;;;22.20;50.80;;;;;;4884539;29;20947;-83
2022/04/29 10:40:44;;;;;;;4.63;4.33;;;22.10;50.70;;;;;;4882824;29;20463;-82
2022/04/29 10:43:13;;;;;;;5.17;4.80;;;22.10;50.20;;;;;;4879510;29;20473;-79
2022/04/29 10:46:14;;;;;;;4.63;4.20;;;22.10;49.90;;;;;;4879758;29;21014;-83
2022/04/29 10:48:43;;;;;;;4.30;4.00;;;22.10;49.70;;;;;;4878414;29;20537;-84
2022/04/29 10:51:11;;;;;;;6.43;5.83;;;22.20;50.70;;;;;;4887113;29;20488;-84
2022/04/29 10:53:40;;;;;;;4.10;3.90;;;22.30;50.40;;;;;;4884163;29;20541;-82
2022/04/29 10:56:38;;;;;;;4.43;4.13;;;22.40;51.60;;;;;;4873894;29;20451;-85
2022/04/29 10:59:23;;;;;;;5.43;4.90;;;22.60;52.60;;;;;;4883386;29;20974;-84
2022/04/29 11:02:04;;;;;;;4.37;4.07;;;22.90;50.70;;;;;;4885912;29;20476;-83
2022/04/29 11:04:45;;;;;;;4.20;3.90;;;23.10;49.60;;;;;;4885147;29;20470;-82
2022/04/29 11:07:48;;;;;;;4.50;4.10;;;23.60;49.00;;;;;;4883494;29;20496;-85
2022/04/29 11:13:04;;;;;;;4.70;4.30;;;24.60;47.00;;;;;;4885305;29;20452;-82
2022/04/29 11:15:42;;;;;;;5.60;5.10;;;25.00;44.90;;;;;;4885427;29;20987;-83
2022/04/29 11:18:24;;;;;;;4.20;3.90;;;25.40;45.60;;;;;;4884610;29;20465;-86
2022/04/29 11:20:56;;;;;;;4.80;4.40;;;25.90;45.40;;;;;;4884372;29;20979;-86
2022/04/29 11:26:13;;;;;;;4.37;4.07;;;26.40;44.10;;;;;;4884483;29;20454;-83
2022/04/29 11:28:42;;;;;;;4.07;3.77;;;26.40;42.30;;;;;;4885331;29;20450;-84
2022/04/29 11:31:24;;;;;;;5.60;5.10;;;26.30;40.70;;;;;;4882561;29;20471;-83
2022/04/29 11:33:50;;;;;;;3.73;3.47;;;26.40;39.50;;;;;;4883762;29;20460;-82
2022/04/29 11:36:19;;;;;;;4.83;4.37;;;26.60;40.90;;;;;;4883327;29;21023;-83
2022/04/29 11:38:48;;;;;;;5.40;4.90;;;26.70;42.00;;;;;;4883050;29;20461;-82
2022/04/29 11:41:16;;;;;;;6.40;5.83;;;26.80;41.60;;;;;;4882779;29;20503;-83
2022/04/29 11:43:45;;;;;;;5.63;5.20;;;26.60;40.30;;;;;;4883078;29;20509;-83
2022/04/29 11:46:13;;;;;;;6.90;4.60;;;26.10;39.60;;;;;;4883771;29;20466;-83
2022/04/29 11:48:51;;;;;;;5.47;4.93;;;25.90;41.90;;;;;;4883539;29;20524;-83
2022/04/29 11:51:19;;;;;;;5.20;4.90;;;25.80;42.10;;;;;;4881504;29;21020;-82
2022/04/29 11:54:01;;;;;;;5.30;4.80;;;25.80;40.00;;;;;;4882859;29;20886;-82
2022/04/29 11:56:36;;;;;;;5.00;4.60;;;25.70;39.90;;;;;;4883027;29;21039;-82
2022/04/29 11:59:07;;;;;;;5.60;5.20;;;25.80;41.00;;;;;;4883102;29;20478;-83
2022/04/29 12:01:34;;;;;;;5.13;4.70;;;26.00;41.20;;;;;;4881895;29;21032;-83
2022/04/29 12:04:01;;;;;;;5.23;4.80;;;26.00;39.80;;;;;;4883738;29;20550;-82
2022/04/29 12:06:28;;;;;;;4.63;4.40;;;25.80;39.60;;;;;;4884644;29;20550;-82
2022/04/29 12:08:56;;;;;;;5.20;4.90;;;25.60;41.10;;;;;;4884111;29;20466;-82
2022/04/29 12:11:25;;;;;;;5.27;4.93;;;25.50;40.80;;;;;;4882196;29;20472;-82
2022/04/29 12:13:51;;;;;;;5.20;4.40;;;25.50;41.40;;;;;;4883415;29;20465;-81
2022/04/29 12:16:18;;;;;;;5.73;5.33;;;25.50;42.50;;;;;;4883420;29;20497;-82
2022/04/29 12:18:47;;;;;;;5.43;5.03;;;25.60;41.70;;;;;;4883484;29;20469;-83
2022/04/29 12:21:21;;;;;;;4.57;4.27;;;25.50;40.80;;;;;;4883765;29;20477;-82
2022/04/29 12:23:48;;;;;;;6.47;5.93;;;25.30;40.60;;;;;;4883949;29;20457;-83
2022/04/29 12:26:16;;;;;;;4.70;4.40;;;25.10;42.30;;;;;;4884384;29;20458;-82
2022/04/29 12:28:43;;;;;;;5.70;5.30;;;25.00;41.90;;;;;;4883664;29;20467;-83
2022/04/29 12:36:50;;;;;;;5.10;4.60;;;24.30;41.50;;;;;;4882393;29;20556;-82
2022/04/29 12:39:21;;;;;;;4.93;4.63;;;24.40;43.00;;;;;;4882026;29;20475;-82
2022/04/29 12:41:59;;;;;;;4.60;4.20;;;25.00;42.30;;;;;;4881932;29;20843;-83
2022/04/29 12:47:24;;;;;;;5.67;5.37;;;26.70;41.70;;;;;;4882376;29;20434;-83
2022/04/29 12:49:51;;;;;;;5.77;5.27;;;27.50;38.70;;;;;;4882461;29;20724;-83
2022/04/29 12:52:18;;;;;;;7.00;5.37;;;28.00;38.80;;;;;;4882057;29;20480;-84
2022/04/29 12:54:46;;;;;;;6.23;5.77;;;28.50;37.30;;;;;;4882238;29;20450;-83
2022/04/29 12:57:17;;;;;;;6.00;5.57;;;28.80;37.30;;;;;;4882782;29;20496;-83
2022/04/29 12:59:45;;;;;;;5.97;5.47;;;29.10;37.40;;;;;;4883021;29;20480;-83
2022/04/29 13:02:12;;;;;;;5.57;5.07;;;29.30;35.80;;;;;;4882138;29;20831;-83
2022/04/29 13:04:38;;;;;;;7.23;6.63;;;29.70;35.60;;;;;;4884943;29;20456;-83
2022/04/29 13:07:05;;;;;;;5.80;5.30;;;30.10;35.90;;;;;;4886257;29;20460;-83
2022/04/29 13:09:32;;;;;;;6.23;5.57;;;30.40;35.60;;;;;;4886468;29;20460;-83
2022/04/29 13:11:59;;;;;;;5.70;5.40;;;30.90;35.60;;;;;;4885051;29;20479;-83
2022/04/29 13:14:27;;;;;;;5.37;5.07;;;31.60;33.90;;;;;;4885574;29;20467;-84
2022/04/29 13:16:54;;;;;;;6.90;6.40;;;32.30;33.30;;;;;;4885866;29;20885;-84
2022/04/29 13:19:24;;;;;;;6.17;5.77;;;32.50;30.80;;;;;;4886377;29;20461;-83
2022/04/29 13:21:51;;;;;;;6.60;6.10;;;32.60;30.60;;;;;;4885446;29;20485;-83
2022/04/29 13:24:18;;;;;;;6.00;5.50;;;32.80;31.70;;;;;;4886102;29;20824;-84
2022/04/29 13:26:44;;;;;;;6.40;6.00;;;33.10;32.20;;;;;;4885340;29;20454;-84